createdAt,value
2022-11-06T00:01:45.626Z,99772.91
2022-11-06T00:04:12.477Z,99768.44
2022-11-06T00:06:39.297Z,99767.41
2022-11-06T00:09:09.410Z,99759.81
2022-11-06T00:11:36.395Z,99769.78
2022-11-06T00:14:04.095Z,99769.78
2022-11-06T00:16:30.972Z,99774.19
2022-11-06T00:19:01.489Z,99773.41
2022-11-06T00:21:30.634Z,99775.53
2022-11-06T00:24:00.444Z,99775.28
2022-11-06T00:26:28.787Z,99772.66
2022-11-06T00:28:56.155Z,99777.91
2022-11-06T00:31:28.935Z,99786.53
2022-11-06T00:33:57.716Z,99783.91
2022-11-06T00:36:26.322Z,99778.41
2022-11-06T00:38:57.426Z,99788.91
2022-11-06T00:41:25.560Z,99793.59
2022-11-06T00:44:02.830Z,99787.84
2022-11-06T00:46:30.466Z,99789.69
2022-11-06T00:48:57.316Z,99791.25
2022-11-06T00:51:35.318Z,99793.63
2022-11-06T00:54:04.632Z,99790.72
2022-11-06T00:56:32.272Z,99789.16
2022-11-06T00:59:00.755Z,99786.53
2022-11-06T01:01:30.735Z,99784.72
2022-11-06T01:04:00.379Z,99793.88
2022-11-06T01:06:30.232Z,99793.34
2022-11-06T01:08:57.511Z,99793.34
2022-11-06T01:11:46.570Z,99790.47
2022-11-06T01:14:18.633Z,99787.59
2022-11-06T01:16:47.721Z,99787.06
2022-11-06T01:19:16.522Z,99785.50
2022-11-06T01:21:45.601Z,99790.47
2022-11-06T01:24:15.696Z,99785.50
2022-11-06T01:27:04.875Z,99788.63
2022-11-06T01:29:29.960Z,99780.00
2022-11-06T01:31:56.803Z,99793.63
2022-11-06T01:34:23.624Z,99782.63
2022-11-06T01:36:50.505Z,99789.44
2022-11-06T01:39:17.334Z,99786.81
2022-11-06T01:41:47.884Z,99787.06
2022-11-06T01:44:14.623Z,99786.28
2022-11-06T01:46:41.524Z,99794.13
2022-11-06T01:49:16.145Z,99781.06
2022-11-06T01:51:56.365Z,99788.13
2022-11-06T01:54:27.827Z,99790.47
2022-11-06T01:56:57.516Z,99785.78
2022-11-06T01:59:33.142Z,99789.41
2022-11-06T02:02:00.044Z,99790.47
2022-11-06T02:04:33.889Z,99793.63
2022-11-06T02:07:03.267Z,99793.38
2022-11-06T02:09:32.389Z,99799.91
2022-11-06T02:12:07.377Z,99797.81
2022-11-06T02:14:50.945Z,99793.34
2022-11-06T02:17:36.277Z,99796.25
2022-11-06T02:20:46.618Z,99799.88
2022-11-06T02:23:41.009Z,99795.97
2022-11-06T02:26:22.910Z,99801.22
2022-11-06T02:29:15.939Z,99796.50
2022-11-06T02:31:45.339Z,99798.06
2022-11-06T02:34:16.702Z,99799.63
2022-11-06T02:36:53.613Z,99798.06
2022-11-06T02:39:24.431Z,99798.31
2022-11-06T02:41:54.538Z,99804.59
2022-11-06T02:44:26.848Z,99794.13
2022-11-06T02:47:02.718Z,99797.81
2022-11-06T02:49:40.094Z,99795.72
2022-11-06T02:52:14.066Z,99803.56
2022-11-06T02:54:46.244Z,99802.50
2022-11-06T02:57:14.993Z,99799.66
2022-11-06T03:00:09.482Z,99805.38
2022-11-06T03:02:58.640Z,99801.47
2022-11-06T03:05:37.199Z,99800.69
2022-11-06T03:08:12.282Z,99805.63
2022-11-06T03:10:47.558Z,99808.25
2022-11-06T03:13:19.584Z,99811.13
2022-11-06T03:16:03.144Z,99803.00
2022-11-06T03:19:02.304Z,99801.72
2022-11-06T03:21:57.256Z,99799.88
2022-11-06T03:24:34.135Z,99801.94
2022-11-06T03:27:10.254Z,99810.06
2022-11-06T03:29:44.534Z,99808.75
2022-11-06T03:32:33.153Z,99807.97
2022-11-06T03:35:19.193Z,99812.38
2022-11-06T03:38:07.385Z,99810.56
2022-11-06T03:40:39.282Z,99805.59
2022-11-06T03:43:11.159Z,99804.00
2022-11-06T03:45:43.270Z,99813.69
2022-11-06T03:48:21.067Z,99825.97
2022-11-06T03:50:50.488Z,99820.47
2022-11-06T03:53:25.344Z,99827.78
2022-11-06T03:55:58.079Z,99823.06
2022-11-06T03:58:31.272Z,99829.56
2022-11-06T04:01:03.702Z,99827.78
2022-11-06T04:03:36.280Z,99828.56
2022-11-06T04:06:06.978Z,99819.38
2022-11-06T04:08:35.198Z,99820.16
2022-11-06T04:11:05.568Z,99819.38
2022-11-06T04:13:35.756Z,99818.84
2022-11-06T04:16:03.638Z,99817.28
2022-11-06T04:18:30.540Z,99814.44
2022-11-06T04:21:11.926Z,99822.00
2022-11-06T04:24:25.743Z,99818.34
2022-11-06T04:27:08.233Z,99824.59
2022-11-06T04:30:04.940Z,99831.91
2022-11-06T04:33:00.809Z,99831.38
2022-11-06T04:35:35.266Z,99837.41
2022-11-06T04:38:34.433Z,99837.41
2022-11-06T04:41:28.508Z,99842.09
2022-11-06T04:44:00.260Z,99836.59
2022-11-06T04:46:33.788Z,99844.19
2022-11-06T04:49:05.539Z,99846.25
2022-11-06T04:51:35.977Z,99842.09
2022-11-06T04:54:03.149Z,99842.88
2022-11-06T04:56:35.066Z,99846.78
2022-11-06T04:59:04.060Z,99846.50
2022-11-06T05:01:31.342Z,99850.94
2022-11-06T05:03:58.465Z,99850.94
2022-11-06T05:06:29.601Z,99842.84
2022-11-06T05:08:57.801Z,99843.59
2022-11-06T05:11:25.088Z,99841.25
2022-11-06T05:13:52.075Z,99852.25
2022-11-06T05:16:18.960Z,99853.31
2022-11-06T05:18:45.787Z,99843.63
2022-11-06T05:21:12.600Z,99847.31
2022-11-06T05:23:40.612Z,99844.41
2022-11-06T05:26:08.240Z,99844.16
2022-11-06T05:28:35.250Z,99849.38
2022-11-06T05:31:02.090Z,99846.44
2022-11-06T05:33:29.017Z,99846.16
2022-11-06T05:35:55.882Z,99843.28
2022-11-06T05:38:22.765Z,99851.34
2022-11-06T05:40:49.564Z,99846.13
2022-11-06T05:43:16.350Z,99850.06
2022-11-06T05:45:43.137Z,99850.28
2022-11-06T05:48:10.817Z,99851.59
2022-11-06T05:50:37.809Z,99843.22
2022-11-06T05:53:14.862Z,99844.50
2022-11-06T05:55:41.636Z,99841.91
2022-11-06T05:58:08.512Z,99850.53
2022-11-06T06:00:35.216Z,99842.94
2022-11-06T06:03:02.499Z,99841.66
2022-11-06T06:05:29.668Z,99838.78
2022-11-06T06:07:56.537Z,99835.88
2022-11-06T06:10:24.159Z,99840.34
2022-11-06T06:12:51.182Z,99844.50
2022-11-06T06:15:18.287Z,99840.09
2022-11-06T06:17:45.126Z,99840.63
2022-11-06T06:20:12.404Z,99841.41
2022-11-06T06:22:39.436Z,99847.13
2022-11-06T06:25:14.690Z,99846.34
2022-11-06T06:27:48.433Z,99845.56
2022-11-06T06:30:15.179Z,99842.94
2022-11-06T06:32:42.108Z,99846.88
2022-11-06T06:35:09.380Z,99846.09
2022-11-06T06:37:36.628Z,99846.88
2022-11-06T06:40:04.370Z,99846.63
2022-11-06T06:42:32.307Z,99851.88
2022-11-06T06:44:59.063Z,99848.78
2022-11-06T06:47:25.896Z,99850.06
2022-11-06T06:49:52.639Z,99841.50
2022-11-06T06:52:19.362Z,99844.16
2022-11-06T06:54:46.078Z,99850.72
2022-11-06T06:57:12.876Z,99849.69
2022-11-06T06:59:39.592Z,99853.91
2022-11-06T07:02:06.515Z,99859.94
2022-11-06T07:04:33.374Z,99861.53
2022-11-06T07:07:00.145Z,99852.91
2022-11-06T07:09:31.039Z,99855.78
2022-11-06T07:11:58.525Z,99859.50
2022-11-06T07:14:25.423Z,99862.66
2022-11-06T07:16:54.011Z,99864.47
2022-11-06T07:19:21.163Z,99861.09
2022-11-06T07:21:51.563Z,99861.13
2022-11-06T07:24:18.584Z,99856.66
2022-11-06T07:26:45.334Z,99860.88
2022-11-06T07:29:12.194Z,99854.59
2022-11-06T07:31:39.066Z,99857.22
2022-11-06T07:34:06.707Z,99858.78
2022-11-06T07:36:35.769Z,99865.06
2022-11-06T07:39:02.941Z,99850.16
2022-11-06T07:41:29.688Z,99853.31
2022-11-06T07:43:56.387Z,99858.00
2022-11-06T07:46:23.186Z,99850.66
2022-11-06T07:48:50.058Z,99852.22
2022-11-06T07:51:16.997Z,99854.31
2022-11-06T07:53:43.817Z,99853.50
2022-11-06T07:56:11.419Z,99842.72
2022-11-06T07:58:38.378Z,99842.97
2022-11-06T08:01:06.147Z,99842.97
2022-11-06T08:03:33.008Z,99835.84
2022-11-06T08:06:03.166Z,99842.66
2022-11-06T08:08:29.930Z,99841.06
2022-11-06T08:11:01.049Z,99844.44
2022-11-06T08:13:27.854Z,99839.44
2022-11-06T08:15:54.858Z,99843.06
2022-11-06T08:18:21.631Z,99840.97
2022-11-06T08:20:48.904Z,99838.09
2022-11-06T08:23:15.691Z,99838.31
2022-11-06T08:25:42.557Z,99829.91
2022-11-06T08:28:09.420Z,99831.22
2022-11-06T08:30:36.342Z,99836.19
2022-11-06T08:33:05.893Z,99836.22
2022-11-06T08:35:34.722Z,99838.28
2022-11-06T08:38:01.565Z,99830.91
2022-11-06T08:40:31.198Z,99830.13
2022-11-06T08:43:08.164Z,99831.41
2022-11-06T08:45:42.205Z,99826.16
2022-11-06T08:48:10.101Z,99826.38
2022-11-06T08:50:39.117Z,99824.00
2022-11-06T08:53:07.113Z,99824.97
2022-11-06T08:55:36.443Z,99817.38
2022-11-06T08:58:04.200Z,99814.22
2022-11-06T09:00:31.544Z,99815.75
2022-11-06T09:03:03.742Z,99810.25
2022-11-06T09:05:31.743Z,99809.38
2022-11-06T09:07:59.516Z,99812.47
2022-11-06T09:10:28.209Z,99815.06
2022-11-06T09:12:55.010Z,99819.50
2022-11-06T09:15:21.919Z,99818.41
2022-11-06T09:17:51.103Z,99817.09
2022-11-06T09:20:20.968Z,99808.13
2022-11-06T09:22:48.166Z,99806.72
2022-11-06T09:25:16.352Z,99809.06
2022-11-06T09:27:47.458Z,99800.63
2022-11-06T09:30:17.612Z,99804.50
2022-11-06T09:32:50.140Z,99808.75
2022-11-06T09:35:17.109Z,99800.59
2022-11-06T09:37:44.526Z,99811.34
2022-11-06T09:40:24.955Z,99801.53
2022-11-06T09:43:12.423Z,99802.84
2022-11-06T09:45:40.310Z,99790.44
2022-11-06T09:48:18.132Z,99791.94
2022-11-06T09:50:59.873Z,99787.91
2022-11-06T09:53:37.963Z,99776.59
2022-11-06T09:56:06.688Z,99777.69
2022-11-06T09:58:38.236Z,99785.69
2022-11-06T10:01:24.630Z,99781.56
2022-11-06T10:04:02.571Z,99773.75
2022-11-06T10:06:29.962Z,99775.81
2022-11-06T10:09:02.181Z,99776.81
2022-11-06T10:11:41.307Z,99778.31
2022-11-06T10:14:47.975Z,99776.19
2022-11-06T10:17:32.604Z,99771.13
2022-11-06T10:20:25.402Z,99771.47
2022-11-06T10:23:13.206Z,99763.19
2022-11-06T10:26:04.026Z,99761.97
2022-11-06T10:28:52.726Z,99752.53
2022-11-06T10:31:38.618Z,99747.75
2022-11-06T10:34:21.027Z,99746.47
2022-11-06T10:36:50.645Z,99746.00
2022-11-06T10:39:22.627Z,99748.41
2022-11-06T10:41:56.520Z,99737.09
2022-11-06T10:44:31.888Z,99743.91
2022-11-06T10:47:06.751Z,99736.53
2022-11-06T10:49:44.996Z,99736.97
2022-11-06T10:52:21.170Z,99732.28
2022-11-06T10:55:03.051Z,99726.78
2022-11-06T10:57:49.718Z,99713.56
2022-11-06T11:00:16.950Z,99722.25
2022-11-06T11:02:52.000Z,99707.03
2022-11-06T11:05:24.619Z,99702.56
2022-11-06T11:07:51.899Z,99692.94
2022-11-06T11:10:26.409Z,99693.41
2022-11-06T11:12:56.000Z,99686.03
2022-11-06T11:15:25.895Z,99690.22
2022-11-06T11:18:19.777Z,99686.06
2022-11-06T11:21:03.923Z,99692.59
2022-11-06T11:23:30.988Z,99684.84
2022-11-06T11:26:27.001Z,99685.56
2022-11-06T11:29:00.498Z,99676.88
2022-11-06T11:31:33.366Z,99675.75
2022-11-06T11:34:03.557Z,99680.13
2022-11-06T11:36:58.660Z,99670.38
2022-11-06T11:39:43.717Z,99677.97
2022-11-06T11:42:30.956Z,99677.38
2022-11-06T11:45:10.314Z,99665.97
2022-11-06T11:47:39.292Z,99658.56
2022-11-06T11:50:27.797Z,99648.72
2022-11-06T11:53:19.620Z,99650.38
2022-11-06T11:55:50.030Z,99644.34
2022-11-06T11:58:37.904Z,99641.91
2022-11-06T12:01:06.186Z,99629.31
2022-11-06T12:03:46.699Z,99627.88
2022-11-06T12:06:15.891Z,99620.44
2022-11-06T12:08:49.770Z,99621.25
2022-11-06T12:11:29.751Z,99624.34
2022-11-06T12:14:21.890Z,99618.50
2022-11-06T12:16:51.718Z,99615.09
2022-11-06T12:19:21.495Z,99607.28
2022-11-06T12:21:56.233Z,99600.66
2022-11-06T12:24:45.921Z,99601.81
2022-11-06T12:27:35.059Z,99589.41
2022-11-06T12:30:06.515Z,99589.81
2022-11-06T12:32:48.811Z,99591.47
2022-11-06T12:35:37.607Z,99594.78
2022-11-06T12:38:15.543Z,99586.91
2022-11-06T12:40:54.498Z,99582.13
2022-11-06T12:43:39.671Z,99583.88
2022-11-06T12:46:35.070Z,99576.25
2022-11-06T12:49:19.095Z,99572.94
2022-11-06T12:52:05.087Z,99570.78
2022-11-06T12:55:10.243Z,99562.28
2022-11-06T12:58:10.837Z,99568.06
2022-11-06T13:01:01.905Z,99558.31
2022-11-06T13:04:00.702Z,99561.91
2022-11-06T13:06:46.758Z,99552.91
2022-11-06T13:09:32.003Z,99553.63
2022-11-06T13:12:28.994Z,99559.66
2022-11-06T13:15:02.187Z,99554.22
2022-11-06T13:17:35.647Z,99546.81
2022-11-06T13:20:16.728Z,99548.56
2022-11-06T13:22:56.273Z,99546.00
2022-11-06T13:26:17.184Z,99541.41
2022-11-06T13:28:55.802Z,99532.38
2022-11-06T13:31:31.254Z,99530.63
2022-11-06T13:34:01.902Z,99539.59
2022-11-06T13:36:32.358Z,99545.47
2022-11-06T13:39:28.959Z,99545.06
2022-11-06T13:41:58.112Z,99550.13
2022-11-06T13:44:26.439Z,99541.84
2022-11-06T13:47:06.617Z,99530.81
2022-11-06T13:49:41.124Z,99532.75
2022-11-06T13:52:21.799Z,99522.53
2022-11-06T13:55:11.075Z,99525.75
2022-11-06T13:57:52.997Z,99520.28
2022-11-06T14:00:36.280Z,99522.16
2022-11-06T14:03:25.295Z,99519.91
2022-11-06T14:05:53.586Z,99514.63
2022-11-06T14:08:45.780Z,99519.13
2022-11-06T14:11:18.158Z,99518.63
2022-11-06T14:14:02.770Z,99524.19
2022-11-06T14:16:37.336Z,99518.44
2022-11-06T14:19:22.500Z,99513.75
2022-11-06T14:21:50.390Z,99518.03
2022-11-06T14:24:31.050Z,99511.53
2022-11-06T14:26:59.332Z,99512.88
2022-11-06T14:29:26.542Z,99504.28
2022-11-06T14:32:32.212Z,99511.41
2022-11-06T14:35:28.657Z,99509.31
2022-11-06T14:38:10.714Z,99512.25
2022-11-06T14:40:40.234Z,99504.44
2022-11-06T14:43:20.592Z,99516.03
2022-11-06T14:46:02.198Z,99519.25
2022-11-06T14:48:43.427Z,99515.66
2022-11-06T14:51:13.599Z,99522.47
2022-11-06T14:53:56.313Z,99527.03
2022-11-06T14:56:28.972Z,99525.84
2022-11-06T14:59:12.566Z,99526.84
2022-11-06T15:01:40.648Z,99524.78
2022-11-06T15:04:14.527Z,99523.88
2022-11-06T15:06:50.825Z,99526.69
2022-11-06T15:09:23.999Z,99520.81
2022-11-06T15:11:52.558Z,99517.97
2022-11-06T15:14:20.027Z,99519.59
2022-11-06T15:16:56.051Z,99508.59
2022-11-06T15:19:26.994Z,99499.53
2022-11-06T15:22:06.061Z,99494.44
2022-11-06T15:24:44.760Z,99496.84
2022-11-06T15:27:16.359Z,99491.59
2022-11-06T15:29:46.177Z,99488.59
2022-11-06T15:32:20.207Z,99491.38
2022-11-06T15:34:59.961Z,99475.47
2022-11-06T15:37:32.823Z,99474.81
2022-11-06T15:40:01.853Z,99466.09
2022-11-06T15:42:34.823Z,99469.06
2022-11-06T15:45:08.141Z,99468.09
2022-11-06T15:47:35.890Z,99461.63
2022-11-06T15:50:24.939Z,99451.56
2022-11-06T15:52:52.272Z,99461.78
2022-11-06T15:55:32.957Z,99463.03
2022-11-06T15:58:30.806Z,99463.34
2022-11-06T16:01:01.288Z,99458.91
2022-11-06T16:03:31.644Z,99457.34
2022-11-06T16:06:03.176Z,99465.44
2022-11-06T16:08:31.778Z,99458.34
2022-11-06T16:11:00.519Z,99458.47
2022-11-06T16:13:29.339Z,99453.34
2022-11-06T16:15:59.577Z,99453.56
2022-11-06T16:18:46.494Z,99449.88
2022-11-06T16:21:21.507Z,99445.50
2022-11-06T16:24:12.719Z,99441.56
2022-11-06T16:26:46.451Z,99439.94
2022-11-06T16:29:21.513Z,99435.81
2022-11-06T16:31:58.899Z,99431.59
2022-11-06T16:34:32.662Z,99429.00
2022-11-06T16:37:01.623Z,99435.81
2022-11-06T16:39:48.756Z,99437.38
2022-11-06T16:42:23.082Z,99437.72
2022-11-06T16:45:21.274Z,99428.13
2022-11-06T16:48:07.087Z,99436.72
2022-11-06T16:50:48.895Z,99440.72
2022-11-06T16:53:25.507Z,99439.31
2022-11-06T16:55:59.648Z,99438.91
2022-11-06T16:58:29.357Z,99436.78
2022-11-06T17:01:03.470Z,99438.50
2022-11-06T17:03:47.837Z,99432.28
2022-11-06T17:06:22.951Z,99436.00
2022-11-06T17:09:08.803Z,99434.53
2022-11-06T17:11:37.862Z,99435.56
2022-11-06T17:14:17.802Z,99433.53
2022-11-06T17:16:54.561Z,99433.63
2022-11-06T17:19:23.522Z,99437.53
2022-11-06T17:21:52.275Z,99440.75
2022-11-06T17:24:36.897Z,99433.91
2022-11-06T17:27:18.396Z,99425.66
2022-11-06T17:29:48.027Z,99434.84
2022-11-06T17:32:15.177Z,99432.09
2022-11-06T17:34:42.896Z,99427.72
2022-11-06T17:37:12.005Z,99427.66
2022-11-06T17:39:43.679Z,99430.53
2022-11-06T17:42:12.144Z,99432.97
2022-11-06T17:44:39.616Z,99443.97
2022-11-06T17:47:09.307Z,99453.88
2022-11-06T17:49:36.628Z,99450.72
2022-11-06T17:52:04.688Z,99453.88
2022-11-06T17:54:34.439Z,99452.28
2022-11-06T17:57:04.570Z,99442.38
2022-11-06T17:59:33.776Z,99447.09
2022-11-06T18:02:02.240Z,99447.66
2022-11-06T18:04:31.159Z,99444.22
2022-11-06T18:06:58.898Z,99445.19
2022-11-06T18:09:27.288Z,99451.28
2022-11-06T18:11:55.830Z,99455.69
2022-11-06T18:14:25.942Z,99462.22
2022-11-06T18:16:55.435Z,99458.16
2022-11-06T18:19:24.782Z,99450.59
2022-11-06T18:21:55.342Z,99449.28
2022-11-06T18:24:23.405Z,99456.09
2022-11-06T18:26:51.168Z,99447.50
2022-11-06T18:29:19.054Z,99446.97
2022-11-06T18:31:46.467Z,99442.75
2022-11-06T18:34:20.472Z,99443.03
2022-11-06T18:36:51.943Z,99444.06
2022-11-06T18:39:21.371Z,99443.03
2022-11-06T18:41:51.290Z,99450.09
2022-11-06T18:44:20.362Z,99446.69
2022-11-06T18:46:49.947Z,99437.03
2022-11-06T18:49:17.730Z,99438.31
2022-11-06T18:51:45.207Z,99436.75
2022-11-06T18:54:14.761Z,99426.06
2022-11-06T18:56:43.022Z,99430.25
2022-11-06T18:59:16.793Z,99426.03
2022-11-06T19:01:44.626Z,99422.41
2022-11-06T19:04:14.862Z,99423.44
2022-11-06T19:06:42.651Z,99424.25
2022-11-06T19:09:11.422Z,99423.69
2022-11-06T19:11:41.013Z,99423.19
2022-11-06T19:14:11.513Z,99424.50
2022-11-06T19:16:39.597Z,99420.84
2022-11-06T19:19:07.365Z,99422.16
2022-11-06T19:21:35.301Z,99416.41
2022-11-06T19:24:06.134Z,99406.22
2022-11-06T19:26:35.780Z,99415.34
2022-11-06T19:29:09.938Z,99415.66
2022-11-06T19:31:40.430Z,99414.59
2022-11-06T19:34:09.520Z,99413.81
2022-11-06T19:36:37.537Z,99408.31
2022-11-06T19:39:07.710Z,99413.28
2022-11-06T19:41:35.667Z,99408.59
2022-11-06T19:44:03.487Z,99410.16
2022-11-06T19:46:35.965Z,99415.91
2022-11-06T19:49:08.842Z,99398.69
2022-11-06T19:51:37.248Z,99402.84
2022-11-06T19:54:06.979Z,99403.38
2022-11-06T19:56:35.856Z,99397.63
2022-11-06T19:59:03.640Z,99394.25
2022-11-06T20:01:32.211Z,99399.44
2022-11-06T20:04:09.524Z,99389.81
2022-11-06T20:06:39.366Z,99384.59
2022-11-06T20:09:08.547Z,99384.03
2022-11-06T20:11:38.191Z,99375.97
2022-11-06T20:14:05.385Z,99374.13
2022-11-06T20:16:33.893Z,99382.75
2022-11-06T20:19:01.806Z,99381.69
2022-11-06T20:21:31.579Z,99377.78
2022-11-06T20:23:59.232Z,99372.53
2022-11-06T20:26:29.656Z,99373.09
2022-11-06T20:28:59.623Z,99375.16
2022-11-06T20:31:29.275Z,99376.19
2022-11-06T20:33:59.672Z,99373.88
2022-11-06T20:36:31.324Z,99370.72
2022-11-06T20:39:01.174Z,99369.41
2022-11-06T20:41:31.054Z,99367.34
2022-11-06T20:43:59.092Z,99367.34
2022-11-06T20:46:26.827Z,99370.72
2022-11-06T20:48:54.253Z,99375.69
2022-11-06T20:51:25.577Z,99375.44
2022-11-06T20:53:53.524Z,99367.59
2022-11-06T20:56:23.375Z,99376.47
2022-11-06T20:58:51.335Z,99375.66
2022-11-06T21:01:22.687Z,99378.28
2022-11-06T21:03:52.047Z,99380.13
2022-11-06T21:06:21.090Z,99372.56
2022-11-06T21:08:49.128Z,99377.81
2022-11-06T21:11:19.984Z,99374.66
2022-11-06T21:13:50.137Z,99383.53
2022-11-06T21:16:30.297Z,99379.63
2022-11-06T21:18:59.614Z,99373.84
2022-11-06T21:21:29.971Z,99371.00
2022-11-06T21:23:58.026Z,99373.38
2022-11-06T21:26:28.081Z,99370.72
2022-11-06T21:28:56.349Z,99369.69
2022-11-06T21:31:26.367Z,99366.03
2022-11-06T21:33:56.248Z,99365.22
2022-11-06T21:36:25.821Z,99364.97
2022-11-06T21:38:54.032Z,99367.84
2022-11-06T21:41:23.137Z,99369.19
2022-11-06T21:43:51.268Z,99358.47
2022-11-06T21:46:19.489Z,99356.41
2022-11-06T21:48:48.871Z,99354.81
2022-11-06T21:51:22.442Z,99349.06
2022-11-06T21:53:50.392Z,99351.66
2022-11-06T21:56:21.030Z,99357.16
2022-11-06T21:58:54.894Z,99347.75
2022-11-06T22:01:23.206Z,99353.00
2022-11-06T22:03:50.944Z,99352.72
2022-11-06T22:06:20.423Z,99348.78
2022-11-06T22:08:48.616Z,99342.78
2022-11-06T22:11:18.353Z,99346.72
2022-11-06T22:13:46.153Z,99350.91
2022-11-06T22:16:15.804Z,99347.25
2022-11-06T22:18:42.750Z,99352.19
2022-11-06T22:21:15.109Z,99343.03
2022-11-06T22:23:42.734Z,99340.94
2022-11-06T22:26:13.041Z,99337.28
2022-11-06T22:28:40.333Z,99344.50
2022-11-06T22:31:08.706Z,99345.56
2022-11-06T22:33:36.485Z,99351.81
2022-11-06T22:36:07.820Z,99345.28
2022-11-06T22:38:37.098Z,99344.78
2022-11-06T22:41:06.007Z,99341.91
2022-11-06T22:43:34.682Z,99350.00
2022-11-06T22:46:08.103Z,99343.19
2022-11-06T22:48:35.478Z,99342.59
2022-11-06T22:51:17.694Z,99355.22
2022-11-06T22:53:46.080Z,99346.53
2022-11-06T22:56:12.954Z,99348.69
2022-11-06T22:58:40.546Z,99355.25
2022-11-06T23:01:08.910Z,99345.88
2022-11-06T23:03:36.501Z,99343.53
2022-11-06T23:06:08.276Z,99350.31
2022-11-06T23:08:38.846Z,99341.16
2022-11-06T23:11:09.138Z,99343.22
2022-11-06T23:13:36.649Z,99347.97
2022-11-06T23:16:12.593Z,99354.16
2022-11-06T23:18:39.920Z,99351.41
2022-11-06T23:21:18.733Z,99357.72
2022-11-06T23:23:46.327Z,99353.56
2022-11-06T23:26:19.892Z,99355.19
2022-11-06T23:28:46.902Z,99360.69
2022-11-06T23:31:15.399Z,99358.31
2022-11-06T23:33:43.788Z,99356.66
2022-11-06T23:36:13.092Z,99367.13
2022-11-06T23:38:40.871Z,99367.72
2022-11-06T23:41:08.793Z,99369.28
2022-11-06T23:43:35.666Z,99377.09
2022-11-06T23:46:02.912Z,99378.16
2022-11-06T23:48:29.747Z,99380.66
2022-11-06T23:50:59.923Z,99383.22
2022-11-06T23:53:26.754Z,99386.47
2022-11-06T23:55:53.931Z,99389.41
2022-11-06T23:58:20.751Z,99396.03
